createdAt,value
2022-09-04T00:02:43.915Z,99.90
2022-09-04T00:05:19.801Z,99.90
2022-09-04T00:08:05.942Z,99.90
2022-09-04T00:10:43.022Z,99.90
2022-09-04T00:13:22.486Z,99.90
2022-09-04T00:16:04.108Z,99.90
2022-09-04T00:18:45.437Z,99.90
2022-09-04T00:21:26.970Z,99.90
2022-09-04T00:24:08.804Z,99.90
2022-09-04T00:26:44.035Z,99.90
2022-09-04T00:29:21.439Z,99.90
2022-09-04T00:31:56.971Z,99.90
2022-09-04T00:35:01.982Z,99.90
2022-09-04T00:37:39.692Z,99.90
2022-09-04T00:40:16.771Z,99.90
2022-09-04T00:42:46.959Z,99.90
2022-09-04T00:45:41.660Z,99.90
2022-09-04T00:48:08.506Z,99.90
2022-09-04T00:50:55.991Z,99.90
2022-09-04T00:53:37.379Z,99.90
2022-09-04T00:56:38.124Z,99.90
2022-09-04T00:59:16.875Z,99.90
2022-09-04T01:01:45.008Z,99.90
2022-09-04T01:04:57.693Z,99.90
2022-09-04T01:07:56.633Z,99.90
2022-09-04T01:10:33.806Z,99.90
2022-09-04T01:13:13.007Z,99.90
2022-09-04T01:15:50.734Z,99.90
2022-09-04T01:18:48.485Z,99.90
2022-09-04T01:21:30.760Z,99.90
2022-09-04T01:24:30.829Z,99.90
2022-09-04T01:27:29.890Z,99.90
2022-09-04T01:30:08.116Z,99.90
2022-09-04T01:43:22.968Z,99.90
2022-09-04T01:46:26.059Z,99.90
2022-09-04T01:49:03.099Z,99.90
2022-09-04T01:52:01.043Z,99.90
2022-09-04T01:54:52.821Z,99.90
2022-09-04T01:57:34.449Z,99.90
2022-09-04T02:00:15.576Z,99.90
2022-09-04T02:03:03.748Z,99.90
2022-09-04T02:05:48.248Z,99.90
2022-09-04T02:08:52.576Z,99.90
2022-09-04T02:11:27.845Z,99.90
2022-09-04T02:14:14.341Z,99.90
2022-09-04T02:17:08.096Z,99.90
2022-09-04T02:19:47.698Z,99.90
2022-09-04T02:22:26.431Z,99.90
2022-09-04T02:25:02.878Z,99.90
2022-09-04T02:27:48.601Z,99.90
2022-09-04T02:30:19.050Z,99.90
2022-09-04T02:32:49.480Z,99.90
2022-09-04T02:35:25.193Z,99.90
2022-09-04T02:37:57.657Z,99.90
2022-09-04T02:40:30.093Z,99.90
2022-09-04T02:43:14.467Z,99.90
2022-09-04T02:46:00.203Z,99.90
2022-09-04T02:48:57.606Z,99.90
2022-09-04T02:51:59.090Z,99.90
2022-09-04T02:55:03.719Z,99.90
2022-09-04T02:57:56.649Z,99.90
2022-09-04T03:00:55.214Z,99.90
2022-09-04T03:03:29.464Z,99.90
2022-09-04T03:06:09.488Z,99.90
2022-09-04T03:09:07.834Z,99.90
2022-09-04T03:11:41.752Z,99.90
2022-09-04T03:14:18.573Z,99.90
2022-09-04T03:16:58.741Z,99.90
2022-09-04T03:19:42.586Z,99.90
2022-09-04T03:22:15.621Z,99.90
2022-09-04T03:24:58.141Z,99.90
2022-09-04T03:27:26.349Z,99.90
2022-09-04T03:30:09.084Z,99.90
2022-09-04T03:33:02.774Z,99.90
2022-09-04T03:36:03.037Z,99.90
2022-09-04T03:39:04.478Z,99.90
2022-09-04T03:41:54.270Z,99.90
2022-09-04T03:44:48.693Z,99.90
2022-09-04T03:47:41.708Z,99.90
2022-09-04T03:50:17.368Z,99.90
2022-09-04T03:53:28.568Z,99.90
2022-09-04T03:56:01.325Z,99.90
2022-09-04T03:59:02.198Z,99.90
2022-09-04T04:01:52.971Z,99.90
2022-09-04T04:04:44.059Z,99.90
2022-09-04T04:07:22.189Z,99.90
2022-09-04T04:10:06.325Z,99.90
2022-09-04T04:12:44.935Z,99.90
2022-09-04T04:15:17.261Z,99.90
2022-09-04T04:18:04.370Z,99.90
2022-09-04T04:20:52.583Z,99.90
2022-09-04T04:23:50.800Z,99.90
2022-09-04T04:26:21.605Z,99.90
2022-09-04T04:29:15.685Z,99.90
2022-09-04T04:32:11.723Z,99.90
2022-09-04T04:35:10.547Z,99.90
2022-09-04T04:37:51.822Z,99.90
2022-09-04T04:40:21.626Z,99.90
2022-09-04T04:43:08.560Z,99.90
2022-09-04T04:46:02.447Z,99.90
2022-09-04T04:48:53.178Z,99.90
2022-09-04T04:51:49.166Z,99.90
2022-09-04T04:54:46.065Z,99.90
2022-09-04T04:57:18.657Z,99.90
2022-09-04T05:00:11.658Z,99.90
2022-09-04T05:02:54.141Z,99.90
2022-09-04T05:05:41.588Z,99.90
2022-09-04T05:08:36.229Z,99.90
2022-09-04T05:11:13.561Z,99.90
2022-09-04T05:14:06.425Z,99.90
2022-09-04T05:16:51.107Z,99.90
2022-09-04T05:19:32.527Z,99.90
2022-09-04T05:22:18.006Z,99.90
2022-09-04T05:25:07.617Z,99.90
2022-09-04T05:27:58.759Z,99.90
2022-09-04T05:31:02.385Z,99.90
2022-09-04T05:33:55.605Z,99.90
2022-09-04T05:36:43.107Z,99.90
2022-09-04T05:39:32.878Z,99.90
2022-09-04T05:42:14.570Z,99.90
2022-09-04T05:45:01.314Z,99.90
2022-09-04T05:47:55.769Z,99.90
2022-09-04T05:50:46.565Z,99.90
2022-09-04T05:53:25.035Z,99.90
2022-09-04T05:56:07.471Z,99.90
2022-09-04T05:59:01.371Z,99.90
2022-09-04T06:01:55.564Z,99.90
2022-09-04T06:04:45.406Z,99.90
2022-09-04T06:07:17.284Z,99.90
2022-09-04T06:10:03.675Z,99.90
2022-09-04T06:12:48.914Z,99.90
2022-09-04T06:15:52.943Z,99.90
2022-09-04T06:18:40.419Z,99.90
2022-09-04T06:21:15.829Z,99.90
2022-09-04T06:23:57.796Z,99.90
2022-09-04T06:26:27.646Z,99.90
2022-09-04T06:29:15.576Z,99.90
2022-09-04T06:32:13.337Z,99.90
2022-09-04T06:34:46.228Z,99.90
2022-09-04T06:37:48.032Z,99.90
2022-09-04T06:40:32.911Z,99.90
2022-09-04T06:43:32.773Z,99.90
2022-09-04T06:46:38.837Z,99.90
2022-09-04T06:49:14.438Z,99.90
2022-09-04T06:51:52.442Z,99.90
2022-09-04T06:54:57.803Z,99.90
2022-09-04T06:57:48.928Z,99.90
2022-09-04T07:00:18.116Z,99.90
2022-09-04T07:03:12.237Z,99.90
2022-09-04T07:05:58.077Z,99.90
2022-09-04T07:08:43.530Z,99.90
2022-09-04T07:11:10.307Z,99.90
2022-09-04T07:13:48.522Z,99.90
2022-09-04T07:16:24.178Z,99.90
2022-09-04T07:19:07.818Z,99.90
2022-09-04T07:21:40.743Z,99.90
2022-09-04T07:24:46.780Z,99.90
2022-09-04T07:27:52.713Z,99.90
2022-09-04T07:30:20.259Z,99.90
2022-09-04T07:33:03.000Z,99.90
2022-09-04T07:35:59.800Z,99.90
2022-09-04T07:38:35.188Z,99.90
2022-09-04T07:41:17.949Z,99.90
2022-09-04T07:44:05.133Z,99.90
2022-09-04T07:47:05.307Z,99.90
2022-09-04T07:49:37.416Z,99.90
2022-09-04T07:52:42.172Z,99.90
2022-09-04T07:55:26.785Z,99.90
2022-09-04T07:58:11.426Z,99.90
2022-09-04T08:01:12.554Z,99.90
2022-09-04T08:03:54.458Z,99.90
2022-09-04T08:06:24.662Z,99.90
2022-09-04T08:09:09.946Z,99.90
2022-09-04T08:11:45.569Z,99.90
2022-09-04T08:14:21.182Z,99.90
2022-09-04T08:17:28.926Z,99.90
2022-09-04T08:20:20.552Z,99.90
2022-09-04T08:22:53.289Z,99.90
2022-09-04T08:25:30.022Z,99.90
2022-09-04T08:28:06.370Z,99.90
2022-09-04T08:30:48.446Z,99.90
2022-09-04T08:33:23.745Z,99.90
2022-09-04T08:36:25.510Z,99.90
2022-09-04T08:39:30.506Z,99.90
2022-09-04T08:42:19.016Z,99.90
2022-09-04T08:45:23.074Z,99.90
2022-09-04T08:48:23.437Z,99.90
2022-09-04T08:51:20.164Z,99.90
2022-09-04T08:54:14.382Z,99.90
2022-09-04T08:56:59.583Z,99.90
2022-09-04T09:00:07.155Z,99.90
2022-09-04T09:03:11.452Z,99.90
2022-09-04T09:06:09.343Z,99.90
2022-09-04T09:08:36.182Z,99.90
2022-09-04T09:11:23.785Z,99.90
2022-09-04T09:14:02.481Z,99.90
2022-09-04T09:17:00.215Z,99.90
2022-09-04T09:19:37.508Z,99.90
2022-09-04T09:22:22.367Z,99.90
2022-09-04T09:25:21.223Z,99.90
2022-09-04T09:28:09.844Z,99.90
2022-09-04T09:31:15.053Z,99.90
2022-09-04T09:33:53.837Z,99.90
2022-09-04T09:36:45.166Z,99.90
2022-09-04T09:39:30.685Z,99.90
2022-09-04T09:42:16.984Z,99.90
2022-09-04T09:45:03.020Z,99.90
2022-09-04T09:48:08.680Z,99.90
2022-09-04T09:50:46.622Z,99.90
2022-09-04T09:53:35.145Z,99.50
2022-09-04T09:56:38.332Z,98.80
2022-09-04T09:59:32.295Z,98.40
2022-09-04T10:02:22.177Z,99.10
2022-09-04T10:05:00.573Z,98.50
2022-09-04T10:07:30.140Z,98.20
2022-09-04T10:10:28.717Z,98.20
2022-09-04T10:13:23.099Z,97.90
2022-09-04T10:16:08.819Z,98.00
2022-09-04T10:18:54.561Z,97.40
2022-09-04T10:21:55.191Z,97.40
2022-09-04T10:24:40.640Z,96.50
2022-09-04T10:27:19.508Z,95.90
2022-09-04T10:30:22.666Z,95.60
2022-09-04T10:33:20.451Z,95.60
2022-09-04T10:38:29.028Z,93.90
2022-09-04T10:41:20.434Z,93.60
2022-09-04T10:44:08.801Z,91.80
2022-09-04T10:47:10.634Z,92.10
2022-09-04T10:50:29.548Z,91.60
2022-09-04T10:53:38.852Z,91.40
2022-09-04T10:56:30.104Z,91.30
2022-09-04T10:59:10.287Z,90.70
2022-09-04T11:01:58.734Z,90.50
2022-09-04T11:05:19.375Z,90.20
2022-09-04T11:10:30.490Z,88.00
2022-09-04T11:12:57.198Z,86.80
2022-09-04T11:15:48.012Z,87.30
2022-09-04T11:18:43.333Z,88.20
2022-09-04T11:21:49.470Z,90.60
2022-09-04T11:24:38.127Z,89.60
2022-09-04T11:27:44.901Z,87.90
2022-09-04T11:30:17.901Z,85.90
2022-09-04T11:33:08.818Z,85.10
2022-09-04T11:36:06.850Z,84.10
2022-09-04T11:39:08.606Z,84.80
2022-09-04T11:41:47.415Z,84.10
2022-09-04T11:44:38.223Z,81.90
2022-09-04T11:47:43.117Z,81.10
2022-09-04T11:50:24.251Z,81.00
2022-09-04T11:52:51.642Z,80.20
2022-09-04T11:56:05.930Z,81.10
2022-09-04T11:58:56.010Z,81.30
2022-09-04T12:01:32.051Z,80.30
2022-09-04T12:04:04.432Z,74.60
2022-09-04T12:07:00.021Z,75.10
2022-09-04T12:09:53.284Z,74.20
2022-09-04T12:12:38.026Z,75.70
2022-09-04T12:15:08.644Z,78.10
2022-09-04T12:17:49.200Z,79.00
2022-09-04T12:20:27.781Z,80.10
2022-09-04T12:23:10.654Z,80.00
2022-09-04T12:26:08.526Z,79.00
2022-09-04T12:28:52.521Z,77.30
2022-09-04T12:31:34.148Z,76.40
2022-09-04T12:34:04.350Z,73.00
2022-09-04T12:36:33.161Z,72.10
2022-09-04T12:39:17.764Z,71.60
2022-09-04T12:42:04.372Z,73.50
2022-09-04T12:44:53.152Z,74.00
2022-09-04T12:47:41.963Z,72.40
2022-09-04T12:50:19.427Z,72.30
2022-09-04T12:52:46.116Z,74.10
2022-09-04T12:55:19.293Z,75.20
2022-09-04T12:58:13.076Z,76.10
2022-09-04T13:00:49.745Z,76.30
2022-09-04T13:03:22.559Z,78.00
2022-09-04T13:05:53.240Z,78.40
2022-09-04T13:08:45.086Z,78.90
2022-09-04T13:11:24.233Z,78.70
2022-09-04T13:17:01.575Z,77.90
2022-09-04T13:19:36.120Z,75.20
2022-09-04T13:22:12.083Z,71.10
2022-09-04T13:25:04.389Z,70.20
2022-09-04T13:27:49.997Z,71.30
2022-09-04T13:30:24.315Z,73.10
2022-09-04T13:33:26.175Z,72.60
2022-09-04T13:36:09.136Z,73.00
2022-09-04T13:38:42.027Z,73.20
2022-09-04T13:41:30.502Z,73.90
2022-09-04T13:44:04.228Z,74.20
2022-09-04T13:47:00.209Z,72.80
2022-09-04T13:49:42.805Z,71.80
2022-09-04T13:52:33.785Z,71.40
2022-09-04T13:55:09.846Z,71.00
2022-09-04T13:57:42.701Z,70.40
2022-09-04T14:00:11.999Z,70.70
2022-09-04T14:02:39.287Z,69.90
2022-09-04T14:05:23.170Z,70.10
2022-09-04T14:07:59.197Z,70.10
2022-09-04T14:10:40.845Z,67.00
2022-09-04T14:13:25.719Z,65.50
2022-09-04T14:16:01.881Z,65.30
2022-09-04T14:18:58.165Z,62.60
2022-09-04T14:21:24.916Z,63.50
2022-09-04T14:24:09.785Z,64.80
2022-09-04T14:26:51.149Z,65.00
2022-09-04T14:29:38.539Z,66.40
2022-09-04T14:32:18.639Z,65.70
2022-09-04T14:35:12.764Z,65.50
2022-09-04T14:37:40.372Z,66.20
2022-09-04T14:40:38.988Z,68.30
2022-09-04T14:43:48.451Z,68.80
2022-09-04T14:46:29.799Z,68.50
2022-09-04T14:49:04.651Z,65.70
2022-09-04T14:51:39.740Z,66.20
2022-09-04T14:54:09.132Z,66.50
2022-09-04T14:56:47.890Z,64.70
2022-09-04T14:59:42.506Z,62.60
2022-09-04T15:02:09.330Z,61.20
2022-09-04T15:04:53.827Z,60.90
2022-09-04T15:07:43.683Z,61.10
2022-09-04T15:10:26.672Z,60.20
2022-09-04T15:12:55.716Z,60.80
2022-09-04T15:15:33.101Z,61.00
2022-09-04T15:18:25.627Z,59.90
2022-09-04T15:21:08.003Z,60.80
2022-09-04T15:23:49.906Z,61.00
2022-09-04T15:26:36.957Z,60.20
2022-09-04T15:29:17.400Z,59.90
2022-09-04T15:31:44.549Z,59.70
2022-09-04T15:34:20.318Z,59.10
2022-09-04T15:36:48.383Z,59.70
2022-09-04T15:39:31.974Z,62.30
2022-09-04T15:42:00.054Z,62.40
2022-09-04T15:44:44.254Z,64.00
2022-09-04T15:48:06.157Z,59.70
2022-09-04T15:50:39.223Z,58.70
2022-09-04T15:53:15.952Z,59.90
2022-09-04T15:55:46.946Z,59.70
2022-09-04T15:58:33.112Z,62.70
2022-09-04T16:01:09.255Z,60.60
2022-09-04T16:04:00.083Z,59.90
2022-09-04T16:06:54.900Z,60.40
2022-09-04T16:09:39.928Z,60.70
2022-09-04T16:12:12.961Z,60.60
2022-09-04T16:14:48.639Z,61.60
2022-09-04T16:17:25.320Z,61.20
2022-09-04T16:20:00.624Z,59.70
2022-09-04T16:23:03.879Z,60.20
2022-09-04T16:25:38.093Z,58.60
2022-09-04T16:28:19.081Z,58.70
2022-09-04T16:31:06.479Z,58.80
2022-09-04T16:33:38.049Z,59.10
2022-09-04T16:36:08.810Z,58.90
2022-09-04T16:38:57.210Z,60.00
2022-09-04T16:41:31.536Z,59.30
2022-09-04T16:44:16.813Z,59.10
2022-09-04T16:47:06.086Z,58.80
2022-09-04T16:50:01.978Z,60.20
2022-09-04T16:52:40.738Z,59.00
2022-09-04T16:55:22.122Z,60.80
2022-09-04T16:58:18.845Z,61.60
2022-09-04T17:01:13.776Z,60.40
2022-09-04T17:04:04.166Z,60.10
2022-09-04T17:07:00.101Z,60.10
2022-09-04T17:09:48.850Z,61.30
2022-09-04T17:12:21.504Z,61.80
2022-09-04T17:17:31.518Z,62.10
2022-09-04T17:20:07.795Z,61.40
2022-09-04T17:29:05.065Z,60.90
2022-09-04T17:29:16.403Z,61.40
2022-09-04T17:29:34.604Z,61.30
2022-09-04T17:32:00.579Z,63.80
2022-09-04T17:39:57.363Z,61.80
2022-09-04T17:40:47.892Z,62.10
2022-09-04T17:41:31.239Z,64.10
2022-09-04T17:43:40.517Z,65.40
2022-09-04T17:46:32.283Z,65.60
2022-09-04T17:48:59.879Z,64.80
2022-09-04T17:51:34.803Z,64.30
2022-09-04T17:54:10.054Z,65.60
